sensor_id;sensor_type;location;lat;lon;timestamp;P1;durP1;ratioP1;P2;durP2;ratioP2
76023;SDS011;64719;52.124;6.226;2022-11-20T00:02:07;28.48;;;13.73;;
76023;SDS011;64719;52.124;6.226;2022-11-20T00:04:35;33.42;;;15.32;;
76023;SDS011;64719;52.124;6.226;2022-11-20T00:07:02;28.67;;;14.10;;
76023;SDS011;64719;52.124;6.226;2022-11-20T00:09:28;32.85;;;14.27;;
76023;SDS011;64719;52.124;6.226;2022-11-20T00:11:55;31.90;;;15.50;;
76023;SDS011;64719;52.124;6.226;2022-11-20T00:14:21;32.45;;;15.10;;
76023;SDS011;64719;52.124;6.226;2022-11-20T00:16:49;36.47;;;16.27;;
76023;SDS011;64719;52.124;6.226;2022-11-20T00:19:16;37.85;;;13.40;;
76023;SDS011;64719;52.124;6.226;2022-11-20T00:21:42;27.08;;;13.07;;
76023;SDS011;64719;52.124;6.226;2022-11-20T00:24:09;32.78;;;14.43;;
76023;SDS011;64719;52.124;6.226;2022-11-20T00:26:36;35.40;;;15.00;;
76023;SDS011;64719;52.124;6.226;2022-11-20T00:29:02;29.35;;;14.23;;
76023;SDS011;64719;52.124;6.226;2022-11-20T00:31:30;31.92;;;13.00;;
76023;SDS011;64719;52.124;6.226;2022-11-20T00:33:59;36.75;;;15.25;;
76023;SDS011;64719;52.124;6.226;2022-11-20T00:36:26;29.05;;;14.02;;
76023;SDS011;64719;52.124;6.226;2022-11-20T00:38:54;32.45;;;14.52;;
76023;SDS011;64719;52.124;6.226;2022-11-20T00:41:22;29.05;;;13.63;;
76023;SDS011;64719;52.124;6.226;2022-11-20T00:43:51;33.70;;;14.20;;
76023;SDS011;64719;52.124;6.226;2022-11-20T00:46:18;26.15;;;13.13;;
76023;SDS011;64719;52.124;6.226;2022-11-20T00:48:46;32.95;;;14.48;;
76023;SDS011;64719;52.124;6.226;2022-11-20T00:51:15;31.52;;;14.10;;
76023;SDS011;64719;52.124;6.226;2022-11-20T00:53:43;31.90;;;13.38;;
76023;SDS011;64719;52.124;6.226;2022-11-20T00:56:10;32.65;;;15.63;;
76023;SDS011;64719;52.124;6.226;2022-11-20T00:58:38;36.20;;;15.50;;
76023;SDS011;64719;52.124;6.226;2022-11-20T01:01:06;34.10;;;14.68;;
76023;SDS011;64719;52.124;6.226;2022-11-20T01:03:34;35.92;;;15.70;;
76023;SDS011;64719;52.124;6.226;2022-11-20T01:06:03;32.67;;;14.90;;
76023;SDS011;64719;52.124;6.226;2022-11-20T01:08:32;32.50;;;14.68;;
76023;SDS011;64719;52.124;6.226;2022-11-20T01:11:00;27.88;;;11.52;;
76023;SDS011;64719;52.124;6.226;2022-11-20T01:13:28;33.92;;;14.48;;
76023;SDS011;64719;52.124;6.226;2022-11-20T01:16:06;31.48;;;14.20;;
76023;SDS011;64719;52.124;6.226;2022-11-20T01:18:33;32.63;;;14.30;;
76023;SDS011;64719;52.124;6.226;2022-11-20T01:21:01;31.65;;;14.63;;
76023;SDS011;64719;52.124;6.226;2022-11-20T01:23:30;32.33;;;13.70;;
76023;SDS011;64719;52.124;6.226;2022-11-20T01:25:59;27.38;;;13.73;;
76023;SDS011;64719;52.124;6.226;2022-11-20T01:28:27;27.67;;;14.02;;
76023;SDS011;64719;52.124;6.226;2022-11-20T01:30:54;32.70;;;14.88;;
76023;SDS011;64719;52.124;6.226;2022-11-20T01:33:21;26.98;;;13.70;;
76023;SDS011;64719;52.124;6.226;2022-11-20T01:35:48;27.30;;;13.43;;
76023;SDS011;64719;52.124;6.226;2022-11-20T01:38:15;25.30;;;12.02;;
76023;SDS011;64719;52.124;6.226;2022-11-20T01:40:42;35.80;;;13.95;;
76023;SDS011;64719;52.124;6.226;2022-11-20T01:43:12;30.70;;;13.30;;
76023;SDS011;64719;52.124;6.226;2022-11-20T01:48:36;27.88;;;12.10;;
76023;SDS011;64719;52.124;6.226;2022-11-20T01:51:07;28.10;;;12.95;;
76023;SDS011;64719;52.124;6.226;2022-11-20T01:53:40;32.83;;;14.25;;
76023;SDS011;64719;52.124;6.226;2022-11-20T01:56:09;30.38;;;14.23;;
76023;SDS011;64719;52.124;6.226;2022-11-20T01:58:39;27.85;;;14.07;;
76023;SDS011;64719;52.124;6.226;2022-11-20T02:01:10;28.27;;;13.52;;
76023;SDS011;64719;52.124;6.226;2022-11-20T02:03:38;25.90;;;11.90;;
76023;SDS011;64719;52.124;6.226;2022-11-20T02:06:07;30.30;;;15.02;;
76023;SDS011;64719;52.124;6.226;2022-11-20T02:08:39;26.13;;;12.98;;
76023;SDS011;64719;52.124;6.226;2022-11-20T02:11:05;24.52;;;12.63;;
76023;SDS011;64719;52.124;6.226;2022-11-20T02:13:34;28.67;;;13.32;;
76023;SDS011;64719;52.124;6.226;2022-11-20T02:16:10;27.45;;;13.40;;
76023;SDS011;64719;52.124;6.226;2022-11-20T02:18:40;30.38;;;13.63;;
76023;SDS011;64719;52.124;6.226;2022-11-20T02:21:09;26.27;;;12.48;;
76023;SDS011;64719;52.124;6.226;2022-11-20T02:23:53;24.85;;;11.80;;
76023;SDS011;64719;52.124;6.226;2022-11-20T02:26:27;27.02;;;11.93;;
76023;SDS011;64719;52.124;6.226;2022-11-20T02:28:56;23.85;;;11.75;;
76023;SDS011;64719;52.124;6.226;2022-11-20T02:31:24;25.20;;;12.18;;
76023;SDS011;64719;52.124;6.226;2022-11-20T02:33:54;26.98;;;12.25;;
76023;SDS011;64719;52.124;6.226;2022-11-20T02:36:21;27.55;;;12.90;;
76023;SDS011;64719;52.124;6.226;2022-11-20T02:38:49;26.02;;;11.98;;
76023;SDS011;64719;52.124;6.226;2022-11-20T02:41:17;29.20;;;13.20;;
76023;SDS011;64719;52.124;6.226;2022-11-20T02:43:44;23.23;;;11.68;;
76023;SDS011;64719;52.124;6.226;2022-11-20T02:46:11;24.40;;;11.75;;
76023;SDS011;64719;52.124;6.226;2022-11-20T02:48:37;24.63;;;11.35;;
76023;SDS011;64719;52.124;6.226;2022-11-20T02:51:04;29.83;;;11.93;;
76023;SDS011;64719;52.124;6.226;2022-11-20T02:53:30;20.27;;;10.75;;
76023;SDS011;64719;52.124;6.226;2022-11-20T02:55:57;23.65;;;11.98;;
76023;SDS011;64719;52.124;6.226;2022-11-20T02:58:25;28.40;;;12.68;;
76023;SDS011;64719;52.124;6.226;2022-11-20T03:00:51;26.55;;;12.40;;
76023;SDS011;64719;52.124;6.226;2022-11-20T03:03:18;29.45;;;12.88;;
76023;SDS011;64719;52.124;6.226;2022-11-20T03:05:45;22.48;;;10.82;;
76023;SDS011;64719;52.124;6.226;2022-11-20T03:08:11;24.88;;;11.68;;
76023;SDS011;64719;52.124;6.226;2022-11-20T03:10:37;28.42;;;13.60;;
76023;SDS011;64719;52.124;6.226;2022-11-20T03:13:04;26.73;;;11.88;;
76023;SDS011;64719;52.124;6.226;2022-11-20T03:15:32;34.78;;;13.45;;
76023;SDS011;64719;52.124;6.226;2022-11-20T03:17:58;29.40;;;12.48;;
76023;SDS011;64719;52.124;6.226;2022-11-20T03:20:25;31.88;;;14.23;;
76023;SDS011;64719;52.124;6.226;2022-11-20T03:22:53;27.50;;;12.55;;
76023;SDS011;64719;52.124;6.226;2022-11-20T03:25:20;26.95;;;11.38;;
76023;SDS011;64719;52.124;6.226;2022-11-20T03:27:46;28.92;;;12.20;;
76023;SDS011;64719;52.124;6.226;2022-11-20T03:30:13;25.65;;;11.50;;
76023;SDS011;64719;52.124;6.226;2022-11-20T03:32:41;25.58;;;12.43;;
76023;SDS011;64719;52.124;6.226;2022-11-20T03:35:08;23.83;;;10.65;;
76023;SDS011;64719;52.124;6.226;2022-11-20T03:37:35;28.45;;;11.82;;
76023;SDS011;64719;52.124;6.226;2022-11-20T03:40:02;31.67;;;11.90;;
76023;SDS011;64719;52.124;6.226;2022-11-20T03:42:29;24.88;;;11.82;;
76023;SDS011;64719;52.124;6.226;2022-11-20T03:45:14;25.90;;;10.98;;
76023;SDS011;64719;52.124;6.226;2022-11-20T03:47:43;26.90;;;12.30;;
76023;SDS011;64719;52.124;6.226;2022-11-20T03:50:10;23.88;;;11.07;;
76023;SDS011;64719;52.124;6.226;2022-11-20T03:52:38;30.35;;;11.50;;
76023;SDS011;64719;52.124;6.226;2022-11-20T03:55:05;35.08;;;12.65;;
76023;SDS011;64719;52.124;6.226;2022-11-20T03:57:32;25.75;;;11.75;;
76023;SDS011;64719;52.124;6.226;2022-11-20T03:59:59;29.90;;;11.02;;
76023;SDS011;64719;52.124;6.226;2022-11-20T04:02:25;20.02;;;9.82;;
76023;SDS011;64719;52.124;6.226;2022-11-20T04:04:53;22.50;;;10.88;;
76023;SDS011;64719;52.124;6.226;2022-11-20T04:07:20;22.02;;;10.13;;
76023;SDS011;64719;52.124;6.226;2022-11-20T04:09:46;20.77;;;10.10;;
76023;SDS011;64719;52.124;6.226;2022-11-20T04:12:13;25.73;;;10.43;;
76023;SDS011;64719;52.124;6.226;2022-11-20T04:14:39;18.77;;;9.07;;
76023;SDS011;64719;52.124;6.226;2022-11-20T04:17:06;24.70;;;10.40;;
76023;SDS011;64719;52.124;6.226;2022-11-20T04:19:32;24.52;;;10.98;;
76023;SDS011;64719;52.124;6.226;2022-11-20T04:22:00;21.15;;;10.18;;
76023;SDS011;64719;52.124;6.226;2022-11-20T04:24:27;26.58;;;11.27;;
76023;SDS011;64719;52.124;6.226;2022-11-20T04:26:53;24.80;;;11.55;;
76023;SDS011;64719;52.124;6.226;2022-11-20T04:29:20;20.58;;;10.23;;
76023;SDS011;64719;52.124;6.226;2022-11-20T04:31:46;20.90;;;10.65;;
76023;SDS011;64719;52.124;6.226;2022-11-20T04:34:13;20.73;;;8.88;;
76023;SDS011;64719;52.124;6.226;2022-11-20T04:36:39;26.30;;;10.93;;
76023;SDS011;64719;52.124;6.226;2022-11-20T04:39:11;23.55;;;11.00;;
76023;SDS011;64719;52.124;6.226;2022-11-20T04:41:39;22.50;;;10.50;;
76023;SDS011;64719;52.124;6.226;2022-11-20T04:44:06;23.88;;;11.25;;
76023;SDS011;64719;52.124;6.226;2022-11-20T04:46:33;23.95;;;10.93;;
76023;SDS011;64719;52.124;6.226;2022-11-20T04:49:01;27.88;;;11.23;;
76023;SDS011;64719;52.124;6.226;2022-11-20T04:51:27;31.63;;;12.40;;
76023;SDS011;64719;52.124;6.226;2022-11-20T04:53:54;26.58;;;10.43;;
76023;SDS011;64719;52.124;6.226;2022-11-20T04:56:22;20.95;;;10.15;;
76023;SDS011;64719;52.124;6.226;2022-11-20T04:58:49;21.52;;;9.68;;
76023;SDS011;64719;52.124;6.226;2022-11-20T05:01:16;21.42;;;9.93;;
76023;SDS011;64719;52.124;6.226;2022-11-20T05:03:44;21.90;;;9.93;;
76023;SDS011;64719;52.124;6.226;2022-11-20T05:06:15;17.45;;;8.25;;
76023;SDS011;64719;52.124;6.226;2022-11-20T05:08:42;22.83;;;10.05;;
76023;SDS011;64719;52.124;6.226;2022-11-20T05:11:10;22.48;;;9.95;;
76023;SDS011;64719;52.124;6.226;2022-11-20T05:13:39;16.13;;;8.32;;
76023;SDS011;64719;52.124;6.226;2022-11-20T05:16:07;20.60;;;9.50;;
76023;SDS011;64719;52.124;6.226;2022-11-20T05:18:34;23.63;;;10.02;;
76023;SDS011;64719;52.124;6.226;2022-11-20T05:21:02;20.33;;;9.20;;
76023;SDS011;64719;52.124;6.226;2022-11-20T05:23:29;19.73;;;9.02;;
76023;SDS011;64719;52.124;6.226;2022-11-20T05:25:56;16.50;;;7.47;;
76023;SDS011;64719;52.124;6.226;2022-11-20T05:28:24;18.83;;;8.43;;
76023;SDS011;64719;52.124;6.226;2022-11-20T05:30:52;23.42;;;8.43;;
76023;SDS011;64719;52.124;6.226;2022-11-20T05:33:19;20.10;;;9.52;;
76023;SDS011;64719;52.124;6.226;2022-11-20T05:35:46;21.80;;;10.10;;
76023;SDS011;64719;52.124;6.226;2022-11-20T05:38:13;24.50;;;11.35;;
76023;SDS011;64719;52.124;6.226;2022-11-20T05:40:40;23.00;;;10.10;;
76023;SDS011;64719;52.124;6.226;2022-11-20T05:43:06;19.63;;;9.05;;
76023;SDS011;64719;52.124;6.226;2022-11-20T05:45:33;18.40;;;8.27;;
76023;SDS011;64719;52.124;6.226;2022-11-20T05:48:00;25.17;;;11.00;;
76023;SDS011;64719;52.124;6.226;2022-11-20T05:50:27;19.95;;;7.88;;
76023;SDS011;64719;52.124;6.226;2022-11-20T05:52:54;21.13;;;9.77;;
76023;SDS011;64719;52.124;6.226;2022-11-20T05:55:21;19.50;;;9.75;;
76023;SDS011;64719;52.124;6.226;2022-11-20T05:57:47;20.95;;;10.50;;
76023;SDS011;64719;52.124;6.226;2022-11-20T06:00:14;23.63;;;9.98;;
76023;SDS011;64719;52.124;6.226;2022-11-20T06:02:41;19.45;;;9.52;;
76023;SDS011;64719;52.124;6.226;2022-11-20T06:05:09;22.08;;;10.35;;
76023;SDS011;64719;52.124;6.226;2022-11-20T06:07:35;22.52;;;9.65;;
76023;SDS011;64719;52.124;6.226;2022-11-20T06:10:02;23.52;;;9.77;;
76023;SDS011;64719;52.124;6.226;2022-11-20T06:12:30;25.33;;;11.38;;
76023;SDS011;64719;52.124;6.226;2022-11-20T06:14:57;24.23;;;10.73;;
76023;SDS011;64719;52.124;6.226;2022-11-20T06:17:24;20.42;;;8.70;;
76023;SDS011;64719;52.124;6.226;2022-11-20T06:19:50;16.83;;;7.95;;
76023;SDS011;64719;52.124;6.226;2022-11-20T06:22:18;22.70;;;10.23;;
76023;SDS011;64719;52.124;6.226;2022-11-20T06:24:45;20.88;;;8.80;;
76023;SDS011;64719;52.124;6.226;2022-11-20T06:27:11;19.48;;;9.32;;
76023;SDS011;64719;52.124;6.226;2022-11-20T06:29:38;20.52;;;9.77;;
76023;SDS011;64719;52.124;6.226;2022-11-20T06:32:04;20.00;;;9.13;;
76023;SDS011;64719;52.124;6.226;2022-11-20T06:34:31;22.13;;;9.15;;
76023;SDS011;64719;52.124;6.226;2022-11-20T06:36:57;18.50;;;8.48;;
76023;SDS011;64719;52.124;6.226;2022-11-20T06:39:25;19.98;;;8.23;;
76023;SDS011;64719;52.124;6.226;2022-11-20T06:41:52;24.95;;;8.68;;
76023;SDS011;64719;52.124;6.226;2022-11-20T06:44:18;24.83;;;10.60;;
76023;SDS011;64719;52.124;6.226;2022-11-20T06:46:45;21.90;;;10.07;;
76023;SDS011;64719;52.124;6.226;2022-11-20T06:49:11;18.95;;;8.68;;
76023;SDS011;64719;52.124;6.226;2022-11-20T06:51:38;24.75;;;9.90;;
76023;SDS011;64719;52.124;6.226;2022-11-20T06:54:04;20.65;;;8.93;;
76023;SDS011;64719;52.124;6.226;2022-11-20T06:56:32;23.42;;;9.52;;
76023;SDS011;64719;52.124;6.226;2022-11-20T06:58:59;22.55;;;9.65;;
76023;SDS011;64719;52.124;6.226;2022-11-20T07:01:30;17.55;;;8.60;;
76023;SDS011;64719;52.124;6.226;2022-11-20T07:03:56;21.10;;;9.20;;
76023;SDS011;64719;52.124;6.226;2022-11-20T07:06:23;18.83;;;9.82;;
76023;SDS011;64719;52.124;6.226;2022-11-20T07:08:49;21.35;;;9.02;;
76023;SDS011;64719;52.124;6.226;2022-11-20T07:11:16;23.52;;;8.93;;
76023;SDS011;64719;52.124;6.226;2022-11-20T07:13:44;23.73;;;10.25;;
76023;SDS011;64719;52.124;6.226;2022-11-20T07:16:10;22.60;;;9.55;;
76023;SDS011;64719;52.124;6.226;2022-11-20T07:18:37;18.45;;;9.02;;
76023;SDS011;64719;52.124;6.226;2022-11-20T07:21:04;21.48;;;10.35;;
76023;SDS011;64719;52.124;6.226;2022-11-20T07:23:32;20.23;;;9.02;;
76023;SDS011;64719;52.124;6.226;2022-11-20T07:26:02;21.88;;;10.75;;
76023;SDS011;64719;52.124;6.226;2022-11-20T07:28:29;19.35;;;9.30;;
76023;SDS011;64719;52.124;6.226;2022-11-20T07:30:56;23.80;;;9.73;;
76023;SDS011;64719;52.124;6.226;2022-11-20T07:33:23;25.23;;;10.77;;
76023;SDS011;64719;52.124;6.226;2022-11-20T07:35:50;23.23;;;9.73;;
76023;SDS011;64719;52.124;6.226;2022-11-20T07:38:16;23.25;;;9.82;;
76023;SDS011;64719;52.124;6.226;2022-11-20T07:40:43;27.35;;;10.90;;
76023;SDS011;64719;52.124;6.226;2022-11-20T07:43:09;20.90;;;9.75;;
76023;SDS011;64719;52.124;6.226;2022-11-20T07:45:36;21.85;;;9.85;;
76023;SDS011;64719;52.124;6.226;2022-11-20T07:48:04;21.15;;;9.90;;
76023;SDS011;64719;52.124;6.226;2022-11-20T07:50:30;25.48;;;10.65;;
76023;SDS011;64719;52.124;6.226;2022-11-20T07:53:01;27.52;;;10.93;;
76023;SDS011;64719;52.124;6.226;2022-11-20T07:55:28;21.73;;;9.32;;
76023;SDS011;64719;52.124;6.226;2022-11-20T07:57:55;18.20;;;9.52;;
76023;SDS011;64719;52.124;6.226;2022-11-20T08:00:22;22.00;;;9.65;;
76023;SDS011;64719;52.124;6.226;2022-11-20T08:02:49;18.35;;;9.85;;
76023;SDS011;64719;52.124;6.226;2022-11-20T08:05:17;23.80;;;10.07;;
76023;SDS011;64719;52.124;6.226;2022-11-20T08:07:43;22.48;;;10.63;;
76023;SDS011;64719;52.124;6.226;2022-11-20T08:10:11;22.05;;;10.95;;
76023;SDS011;64719;52.124;6.226;2022-11-20T08:12:43;21.25;;;9.50;;
76023;SDS011;64719;52.124;6.226;2022-11-20T08:15:27;22.30;;;10.25;;
76023;SDS011;64719;52.124;6.226;2022-11-20T08:17:58;20.80;;;10.00;;
76023;SDS011;64719;52.124;6.226;2022-11-20T08:20:27;21.08;;;10.13;;
76023;SDS011;64719;52.124;6.226;2022-11-20T08:22:57;26.40;;;11.35;;
76023;SDS011;64719;52.124;6.226;2022-11-20T08:25:24;22.75;;;10.95;;
76023;SDS011;64719;52.124;6.226;2022-11-20T08:27:51;22.90;;;13.32;;
76023;SDS011;64719;52.124;6.226;2022-11-20T08:30:17;28.10;;;11.38;;
76023;SDS011;64719;52.124;6.226;2022-11-20T08:32:44;21.90;;;11.23;;
76023;SDS011;64719;52.124;6.226;2022-11-20T08:35:10;21.10;;;10.90;;
76023;SDS011;64719;52.124;6.226;2022-11-20T08:37:38;28.55;;;12.40;;
76023;SDS011;64719;52.124;6.226;2022-11-20T08:42:33;26.55;;;13.43;;
76023;SDS011;64719;52.124;6.226;2022-11-20T08:45:00;17.38;;;10.15;;
76023;SDS011;64719;52.124;6.226;2022-11-20T08:47:26;16.10;;;10.27;;
76023;SDS011;64719;52.124;6.226;2022-11-20T08:49:53;19.27;;;11.90;;
76023;SDS011;64719;52.124;6.226;2022-11-20T08:52:19;21.58;;;12.30;;
76023;SDS011;64719;52.124;6.226;2022-11-20T08:54:47;20.92;;;11.02;;
76023;SDS011;64719;52.124;6.226;2022-11-20T08:57:14;21.38;;;11.73;;
76023;SDS011;64719;52.124;6.226;2022-11-20T08:59:40;20.90;;;11.38;;
76023;SDS011;64719;52.124;6.226;2022-11-20T09:02:07;23.83;;;12.57;;
76023;SDS011;64719;52.124;6.226;2022-11-20T09:04:34;23.60;;;13.07;;
76023;SDS011;64719;52.124;6.226;2022-11-20T09:07:00;21.55;;;11.50;;
76023;SDS011;64719;52.124;6.226;2022-11-20T09:09:27;20.02;;;11.98;;
76023;SDS011;64719;52.124;6.226;2022-11-20T09:11:54;21.63;;;12.48;;
76023;SDS011;64719;52.124;6.226;2022-11-20T09:14:21;20.60;;;12.23;;
76023;SDS011;64719;52.124;6.226;2022-11-20T09:16:49;20.55;;;11.70;;
76023;SDS011;64719;52.124;6.226;2022-11-20T09:19:16;20.58;;;12.82;;
76023;SDS011;64719;52.124;6.226;2022-11-20T09:21:42;23.63;;;13.07;;
76023;SDS011;64719;52.124;6.226;2022-11-20T09:24:09;25.58;;;13.05;;
76023;SDS011;64719;52.124;6.226;2022-11-20T09:26:35;21.50;;;12.90;;
76023;SDS011;64719;52.124;6.226;2022-11-20T09:29:03;20.85;;;13.25;;
76023;SDS011;64719;52.124;6.226;2022-11-20T09:33:57;28.58;;;19.45;;
76023;SDS011;64719;52.124;6.226;2022-11-20T09:36:23;22.23;;;15.82;;
76023;SDS011;64719;52.124;6.226;2022-11-20T09:38:50;18.63;;;14.32;;
76023;SDS011;64719;52.124;6.226;2022-11-20T09:41:29;21.27;;;15.07;;
76023;SDS011;64719;52.124;6.226;2022-11-20T09:44:29;33.05;;;25.67;;
76023;SDS011;64719;52.124;6.226;2022-11-20T09:47:07;28.38;;;21.52;;
76023;SDS011;64719;52.124;6.226;2022-11-20T09:49:41;22.00;;;14.73;;
76023;SDS011;64719;52.124;6.226;2022-11-20T09:52:20;23.48;;;13.85;;
76023;SDS011;64719;52.124;6.226;2022-11-20T09:54:53;20.92;;;13.07;;
76023;SDS011;64719;52.124;6.226;2022-11-20T09:57:21;22.27;;;13.57;;
76023;SDS011;64719;52.124;6.226;2022-11-20T09:59:53;22.75;;;12.95;;
76023;SDS011;64719;52.124;6.226;2022-11-20T10:02:26;23.52;;;13.45;;
76023;SDS011;64719;52.124;6.226;2022-11-20T10:04:56;23.02;;;14.90;;
76023;SDS011;64719;52.124;6.226;2022-11-20T10:07:29;28.77;;;17.50;;
76023;SDS011;64719;52.124;6.226;2022-11-20T10:10:01;26.98;;;16.25;;
76023;SDS011;64719;52.124;6.226;2022-11-20T10:12:31;28.35;;;15.98;;
76023;SDS011;64719;52.124;6.226;2022-11-20T10:15:14;26.95;;;16.38;;
76023;SDS011;64719;52.124;6.226;2022-11-20T10:17:57;26.00;;;14.02;;
76023;SDS011;64719;52.124;6.226;2022-11-20T10:20:35;24.20;;;13.52;;
76023;SDS011;64719;52.124;6.226;2022-11-20T10:23:15;22.05;;;12.75;;
76023;SDS011;64719;52.124;6.226;2022-11-20T10:25:54;25.10;;;14.10;;
76023;SDS011;64719;52.124;6.226;2022-11-20T10:31:02;21.70;;;13.57;;
76023;SDS011;64719;52.124;6.226;2022-11-20T10:33:31;27.48;;;13.77;;
76023;SDS011;64719;52.124;6.226;2022-11-20T10:36:05;22.75;;;12.30;;
76023;SDS011;64719;52.124;6.226;2022-11-20T10:38:42;27.08;;;14.98;;
76023;SDS011;64719;52.124;6.226;2022-11-20T10:41:14;30.20;;;18.70;;
76023;SDS011;64719;52.124;6.226;2022-11-20T10:43:53;22.77;;;12.60;;
76023;SDS011;64719;52.124;6.226;2022-11-20T10:46:26;27.15;;;13.10;;
76023;SDS011;64719;52.124;6.226;2022-11-20T10:49:02;23.30;;;13.55;;
76023;SDS011;64719;52.124;6.226;2022-11-20T10:51:33;22.65;;;12.95;;
76023;SDS011;64719;52.124;6.226;2022-11-20T10:54:10;21.63;;;12.48;;
76023;SDS011;64719;52.124;6.226;2022-11-20T10:56:45;23.58;;;13.85;;
76023;SDS011;64719;52.124;6.226;2022-11-20T10:59:28;23.58;;;13.20;;
76023;SDS011;64719;52.124;6.226;2022-11-20T11:02:16;25.40;;;13.07;;
76023;SDS011;64719;52.124;6.226;2022-11-20T11:04:44;22.60;;;13.18;;
76023;SDS011;64719;52.124;6.226;2022-11-20T11:09:43;21.08;;;11.82;;
76023;SDS011;64719;52.124;6.226;2022-11-20T11:12:12;22.65;;;13.07;;
76023;SDS011;64719;52.124;6.226;2022-11-20T11:14:43;24.20;;;14.60;;
76023;SDS011;64719;52.124;6.226;2022-11-20T11:17:22;20.77;;;12.48;;
76023;SDS011;64719;52.124;6.226;2022-11-20T11:19:58;20.40;;;12.77;;
76023;SDS011;64719;52.124;6.226;2022-11-20T11:25:00;22.88;;;12.73;;
76023;SDS011;64719;52.124;6.226;2022-11-20T11:27:28;24.17;;;13.63;;
76023;SDS011;64719;52.124;6.226;2022-11-20T11:30:11;20.85;;;12.75;;
76023;SDS011;64719;52.124;6.226;2022-11-20T11:32:41;27.30;;;15.73;;
76023;SDS011;64719;52.124;6.226;2022-11-20T11:35:19;25.35;;;14.50;;
76023;SDS011;64719;52.124;6.226;2022-11-20T11:37:48;24.83;;;14.55;;
76023;SDS011;64719;52.124;6.226;2022-11-20T11:40:16;23.77;;;14.27;;
76023;SDS011;64719;52.124;6.226;2022-11-20T11:42:46;26.00;;;14.77;;
76023;SDS011;64719;52.124;6.226;2022-11-20T11:45:18;23.30;;;13.82;;
76023;SDS011;64719;52.124;6.226;2022-11-20T11:47:46;26.23;;;14.38;;
76023;SDS011;64719;52.124;6.226;2022-11-20T11:50:15;23.75;;;13.35;;
76023;SDS011;64719;52.124;6.226;2022-11-20T11:52:44;20.20;;;12.57;;
76023;SDS011;64719;52.124;6.226;2022-11-20T11:55:15;22.20;;;13.00;;
76023;SDS011;64719;52.124;6.226;2022-11-20T11:57:49;21.92;;;12.48;;
76023;SDS011;64719;52.124;6.226;2022-11-20T12:00:21;22.77;;;14.20;;
76023;SDS011;64719;52.124;6.226;2022-11-20T12:02:52;25.15;;;13.93;;
76023;SDS011;64719;52.124;6.226;2022-11-20T12:05:23;22.05;;;12.75;;
76023;SDS011;64719;52.124;6.226;2022-11-20T12:10:22;28.23;;;12.57;;
76023;SDS011;64719;52.124;6.226;2022-11-20T12:12:55;20.92;;;11.70;;
76023;SDS011;64719;52.124;6.226;2022-11-20T12:15:29;19.70;;;11.63;;
76023;SDS011;64719;52.124;6.226;2022-11-20T12:17:59;20.17;;;11.23;;
76023;SDS011;64719;52.124;6.226;2022-11-20T12:22:55;19.98;;;11.68;;
76023;SDS011;64719;52.124;6.226;2022-11-20T12:25:28;20.67;;;11.55;;
76023;SDS011;64719;52.124;6.226;2022-11-20T12:31:02;19.35;;;12.57;;
76023;SDS011;64719;52.124;6.226;2022-11-20T12:33:51;24.05;;;13.40;;
76023;SDS011;64719;52.124;6.226;2022-11-20T12:36:27;21.55;;;12.40;;
76023;SDS011;64719;52.124;6.226;2022-11-20T12:39:07;22.52;;;13.00;;
76023;SDS011;64719;52.124;6.226;2022-11-20T12:41:58;23.90;;;13.57;;
76023;SDS011;64719;52.124;6.226;2022-11-20T12:44:58;18.95;;;11.75;;
76023;SDS011;64719;52.124;6.226;2022-11-20T12:47:38;20.85;;;13.48;;
76023;SDS011;64719;52.124;6.226;2022-11-20T12:50:30;20.48;;;11.60;;
76023;SDS011;64719;52.124;6.226;2022-11-20T12:53:08;24.17;;;13.35;;
76023;SDS011;64719;52.124;6.226;2022-11-20T12:58:16;21.10;;;11.10;;
76023;SDS011;64719;52.124;6.226;2022-11-20T13:00:53;21.13;;;12.20;;
76023;SDS011;64719;52.124;6.226;2022-11-20T13:03:31;23.58;;;13.05;;
76023;SDS011;64719;52.124;6.226;2022-11-20T13:06:09;21.25;;;13.18;;
76023;SDS011;64719;52.124;6.226;2022-11-20T13:08:40;19.95;;;12.35;;
76023;SDS011;64719;52.124;6.226;2022-11-20T13:11:11;25.05;;;13.13;;
76023;SDS011;64719;52.124;6.226;2022-11-20T13:13:45;18.85;;;11.10;;
76023;SDS011;64719;52.124;6.226;2022-11-20T13:16:25;21.75;;;13.00;;
76023;SDS011;64719;52.124;6.226;2022-11-20T13:19:00;20.25;;;12.05;;
76023;SDS011;64719;52.124;6.226;2022-11-20T13:21:36;22.42;;;12.30;;
76023;SDS011;64719;52.124;6.226;2022-11-20T13:24:04;19.52;;;11.90;;
76023;SDS011;64719;52.124;6.226;2022-11-20T13:26:31;22.98;;;12.63;;
76023;SDS011;64719;52.124;6.226;2022-11-20T13:29:02;23.80;;;12.90;;
76023;SDS011;64719;52.124;6.226;2022-11-20T13:31:34;24.75;;;11.73;;
76023;SDS011;64719;52.124;6.226;2022-11-20T13:34:05;27.23;;;14.02;;
76023;SDS011;64719;52.124;6.226;2022-11-20T13:36:33;63.78;;;26.08;;
76023;SDS011;64719;52.124;6.226;2022-11-20T13:39:02;33.45;;;16.52;;
76023;SDS011;64719;52.124;6.226;2022-11-20T13:41:30;49.58;;;24.35;;
76023;SDS011;64719;52.124;6.226;2022-11-20T13:44:04;54.75;;;22.92;;
76023;SDS011;64719;52.124;6.226;2022-11-20T13:46:37;204.43;;;74.38;;
76023;SDS011;64719;52.124;6.226;2022-11-20T13:49:09;70.88;;;29.80;;
76023;SDS011;64719;52.124;6.226;2022-11-20T13:51:43;60.70;;;28.63;;
76023;SDS011;64719;52.124;6.226;2022-11-20T13:54:22;50.35;;;25.13;;
76023;SDS011;64719;52.124;6.226;2022-11-20T13:57:29;35.20;;;17.75;;
76023;SDS011;64719;52.124;6.226;2022-11-20T14:00:10;32.92;;;16.35;;
76023;SDS011;64719;52.124;6.226;2022-11-20T14:02:40;31.35;;;17.27;;
76023;SDS011;64719;52.124;6.226;2022-11-20T14:05:13;33.55;;;16.70;;
76023;SDS011;64719;52.124;6.226;2022-11-20T14:07:45;25.75;;;16.67;;
76023;SDS011;64719;52.124;6.226;2022-11-20T14:10:20;33.70;;;20.02;;
76023;SDS011;64719;52.124;6.226;2022-11-20T14:12:48;40.47;;;23.13;;
76023;SDS011;64719;52.124;6.226;2022-11-20T14:15:23;41.33;;;24.25;;
76023;SDS011;64719;52.124;6.226;2022-11-20T14:17:51;38.55;;;21.98;;
76023;SDS011;64719;52.124;6.226;2022-11-20T14:20:18;43.28;;;22.67;;
76023;SDS011;64719;52.124;6.226;2022-11-20T14:22:48;34.90;;;19.38;;
76023;SDS011;64719;52.124;6.226;2022-11-20T14:25:20;36.58;;;19.77;;
76023;SDS011;64719;52.124;6.226;2022-11-20T14:27:52;36.72;;;20.77;;
76023;SDS011;64719;52.124;6.226;2022-11-20T14:30:20;34.13;;;17.70;;
76023;SDS011;64719;52.124;6.226;2022-11-20T14:32:49;34.17;;;16.92;;
76023;SDS011;64719;52.124;6.226;2022-11-20T14:35:17;35.90;;;18.70;;
76023;SDS011;64719;52.124;6.226;2022-11-20T14:37:49;30.52;;;16.17;;
76023;SDS011;64719;52.124;6.226;2022-11-20T14:40:24;38.00;;;20.73;;
76023;SDS011;64719;52.124;6.226;2022-11-20T14:42:54;33.50;;;17.98;;
76023;SDS011;64719;52.124;6.226;2022-11-20T14:45:21;38.55;;;19.73;;
76023;SDS011;64719;52.124;6.226;2022-11-20T14:47:48;31.58;;;16.67;;
76023;SDS011;64719;52.124;6.226;2022-11-20T14:50:18;38.88;;;17.60;;
76023;SDS011;64719;52.124;6.226;2022-11-20T14:52:52;34.40;;;18.30;;
76023;SDS011;64719;52.124;6.226;2022-11-20T14:55:29;33.72;;;17.73;;
76023;SDS011;64719;52.124;6.226;2022-11-20T14:57:57;36.47;;;16.55;;
76023;SDS011;64719;52.124;6.226;2022-11-20T15:00:26;38.22;;;18.17;;
76023;SDS011;64719;52.124;6.226;2022-11-20T15:02:53;35.28;;;16.83;;
76023;SDS011;64719;52.124;6.226;2022-11-20T15:05:20;38.15;;;19.80;;